createdAt,value
2023-05-18T00:00:34.307Z,7.30
2023-05-18T00:03:22.852Z,7.30
2023-05-18T00:06:11.309Z,7.30
2023-05-18T00:08:59.855Z,7.30
2023-05-18T00:11:49.376Z,7.20
2023-05-18T00:14:38.387Z,7.20
2023-05-18T00:17:26.587Z,7.20
2023-05-18T00:20:15.288Z,7.10
2023-05-18T00:23:03.922Z,7.00
2023-05-18T00:25:52.212Z,7.00
2023-05-18T00:28:41.787Z,7.00
2023-05-18T00:31:30.214Z,6.90
2023-05-18T00:34:18.498Z,6.90
2023-05-18T00:37:06.701Z,6.90
2023-05-18T00:39:54.958Z,6.80
2023-05-18T00:42:43.596Z,6.80
2023-05-18T00:45:33.429Z,6.70
2023-05-18T00:48:22.070Z,6.70
2023-05-18T00:51:11.074Z,6.60
2023-05-18T00:54:01.530Z,6.60
2023-05-18T00:56:49.942Z,6.60
2023-05-18T00:59:38.420Z,6.50
2023-05-18T01:02:30.598Z,6.50
2023-05-18T01:05:20.201Z,6.40
2023-05-18T01:08:10.117Z,6.40
2023-05-18T01:11:06.818Z,6.40
2023-05-18T01:14:03.642Z,6.40
2023-05-18T01:17:04.230Z,6.40
2023-05-18T01:20:14.437Z,6.40
2023-05-18T01:23:41.645Z,6.40
2023-05-18T01:26:37.500Z,6.40
2023-05-18T01:29:27.461Z,6.30
2023-05-18T01:32:20.652Z,6.30
2023-05-18T01:35:09.788Z,6.30
2023-05-18T01:37:57.979Z,6.30
2023-05-18T01:40:56.002Z,6.30
2023-05-18T01:43:53.352Z,6.30
2023-05-18T01:46:52.746Z,6.40
2023-05-18T01:49:46.526Z,6.50
2023-05-18T01:52:38.710Z,6.50
2023-05-18T01:55:30.989Z,6.40
2023-05-18T01:58:20.523Z,6.30
2023-05-18T02:01:10.513Z,6.20
2023-05-18T02:03:58.864Z,6.10
2023-05-18T02:06:47.181Z,6.00
2023-05-18T02:09:35.616Z,5.90
2023-05-18T02:12:23.893Z,5.80
2023-05-18T02:15:13.140Z,5.80
2023-05-18T02:18:03.168Z,5.80
2023-05-18T02:20:51.453Z,5.80
2023-05-18T02:23:39.645Z,5.80
2023-05-18T02:26:27.863Z,5.80
2023-05-18T02:29:16.529Z,5.70
2023-05-18T02:32:05.100Z,5.70
2023-05-18T02:34:54.976Z,5.60
2023-05-18T02:37:44.266Z,5.60
2023-05-18T02:40:32.546Z,5.60
2023-05-18T02:43:21.361Z,5.60
2023-05-18T02:46:09.512Z,5.50
2023-05-18T02:48:58.149Z,5.50
2023-05-18T02:51:47.934Z,5.50
2023-05-18T02:54:36.263Z,5.50
2023-05-18T02:57:24.404Z,5.50
2023-05-18T03:00:16.671Z,5.50
2023-05-18T03:03:05.093Z,5.40
2023-05-18T03:05:53.942Z,5.40
2023-05-18T03:08:43.627Z,5.40
2023-05-18T03:11:32.177Z,5.40
2023-05-18T03:14:20.642Z,5.60
2023-05-18T03:17:09.124Z,5.50
2023-05-18T03:19:57.482Z,5.60
2023-05-18T03:22:45.954Z,5.50
2023-05-18T03:25:37.855Z,5.50
2023-05-18T03:28:27.260Z,5.50
2023-05-18T03:31:15.848Z,5.50
2023-05-18T03:34:04.071Z,5.40
2023-05-18T03:36:54.832Z,5.40
2023-05-18T03:39:43.083Z,5.30
2023-05-18T03:42:32.641Z,5.20
2023-05-18T03:45:20.817Z,5.20
2023-05-18T03:48:09.078Z,5.10
2023-05-18T03:50:57.652Z,5.10
2023-05-18T03:53:45.937Z,5.10
2023-05-18T03:56:34.195Z,5.10
2023-05-18T03:59:23.994Z,5.10
2023-05-18T04:02:13.284Z,5.10
2023-05-18T04:05:02.188Z,5.20
2023-05-18T04:07:50.442Z,5.20
2023-05-18T04:10:38.726Z,5.20
2023-05-18T04:13:27.392Z,5.20
2023-05-18T04:16:17.230Z,5.20
2023-05-18T04:19:08.317Z,5.20
2023-05-18T04:21:57.708Z,5.20
2023-05-18T04:24:47.759Z,5.20
2023-05-18T04:27:36.531Z,5.20
2023-05-18T04:30:27.607Z,5.30
2023-05-18T04:33:17.535Z,5.20
2023-05-18T04:36:06.636Z,5.30
2023-05-18T04:38:58.630Z,5.30
2023-05-18T04:41:47.392Z,5.40
2023-05-18T04:44:36.641Z,5.40
2023-05-18T04:47:24.970Z,5.40
2023-05-18T04:50:16.272Z,5.50
2023-05-18T04:53:06.148Z,5.60
2023-05-18T04:55:54.874Z,5.60
2023-05-18T04:58:46.000Z,5.60
2023-05-18T05:01:34.487Z,5.70
2023-05-18T05:04:23.895Z,5.70
2023-05-18T05:07:13.576Z,5.90
2023-05-18T05:10:02.002Z,6.00
2023-05-18T05:12:51.272Z,6.00
2023-05-18T05:15:39.667Z,6.00
2023-05-18T05:18:28.148Z,6.00
2023-05-18T05:21:16.227Z,6.10
2023-05-18T05:24:08.027Z,6.20
2023-05-18T05:26:56.166Z,6.30
2023-05-18T05:29:44.987Z,6.30
2023-05-18T05:32:33.333Z,6.40
2023-05-18T05:35:21.619Z,6.40
2023-05-18T05:38:09.683Z,6.40
2023-05-18T05:40:59.372Z,6.50
2023-05-18T05:43:47.468Z,6.70
2023-05-18T05:46:35.669Z,6.60
2023-05-18T05:49:23.816Z,6.60
2023-05-18T05:52:11.922Z,6.70
2023-05-18T05:55:00.302Z,6.70
2023-05-18T05:57:49.854Z,6.80
2023-05-18T06:00:37.989Z,6.90
2023-05-18T06:03:26.571Z,6.90
2023-05-18T06:06:14.972Z,7.00
2023-05-18T06:09:04.632Z,7.00
2023-05-18T06:11:53.611Z,7.10
2023-05-18T06:14:43.213Z,7.20
2023-05-18T06:17:31.632Z,7.20
2023-05-18T06:20:19.756Z,7.30
2023-05-18T06:23:07.877Z,7.30
2023-05-18T06:25:56.126Z,7.40
2023-05-18T06:28:44.445Z,7.40
2023-05-18T06:31:35.016Z,7.50
2023-05-18T06:34:23.213Z,7.60
2023-05-18T06:37:11.857Z,7.70
2023-05-18T06:40:00.040Z,7.80
2023-05-18T06:42:48.250Z,7.80
2023-05-18T06:45:37.522Z,8.00
2023-05-18T06:48:28.818Z,8.00
2023-05-18T06:51:17.283Z,8.20
2023-05-18T06:54:05.762Z,8.30
2023-05-18T06:56:54.028Z,8.30
2023-05-18T06:59:42.328Z,8.40
2023-05-18T07:02:30.856Z,8.50
2023-05-18T07:05:20.471Z,8.60
2023-05-18T07:08:09.710Z,8.70
2023-05-18T07:10:58.245Z,8.70
2023-05-18T07:13:46.459Z,8.80
2023-05-18T07:16:35.660Z,8.90
2023-05-18T07:19:23.995Z,9.00
2023-05-18T07:22:13.460Z,9.10
2023-05-18T07:25:01.798Z,9.20
2023-05-18T07:27:52.192Z,9.30
2023-05-18T07:30:40.459Z,9.40
2023-05-18T07:33:29.019Z,9.50
2023-05-18T07:36:17.678Z,9.60
2023-05-18T07:39:08.188Z,9.60
2023-05-18T07:41:56.488Z,9.70
2023-05-18T07:44:44.882Z,9.80
2023-05-18T07:47:33.298Z,9.90
2023-05-18T07:50:21.773Z,10.00
2023-05-18T07:53:10.071Z,10.10
2023-05-18T07:56:00.224Z,10.20
2023-05-18T07:58:48.692Z,10.30
2023-05-18T08:01:37.799Z,10.40
2023-05-18T08:04:26.314Z,10.50
2023-05-18T08:07:15.042Z,10.50
2023-05-18T08:10:03.561Z,10.60
2023-05-18T08:12:53.809Z,10.80
2023-05-18T08:15:42.446Z,10.90
2023-05-18T08:18:30.637Z,11.00
2023-05-18T08:21:19.142Z,11.00
2023-05-18T08:24:08.707Z,11.10
2023-05-18T08:26:57.465Z,11.30
2023-05-18T08:29:47.054Z,11.40
2023-05-18T08:32:37.128Z,11.40
2023-05-18T08:35:25.521Z,11.50
2023-05-18T08:38:14.188Z,11.60
2023-05-18T08:41:12.536Z,11.70
2023-05-18T08:44:05.078Z,11.70
2023-05-18T08:46:57.077Z,11.70
2023-05-18T08:49:49.116Z,11.80
2023-05-18T08:52:38.795Z,11.80
2023-05-18T08:55:29.440Z,11.80
2023-05-18T08:58:21.581Z,11.90
2023-05-18T09:01:10.537Z,12.00
2023-05-18T09:04:00.819Z,12.20
2023-05-18T09:06:50.698Z,12.30
2023-05-18T09:09:41.089Z,12.50
2023-05-18T09:12:30.030Z,12.60
2023-05-18T09:15:18.820Z,12.70
2023-05-18T09:18:07.196Z,12.70
2023-05-18T09:20:56.994Z,12.90
2023-05-18T09:23:46.531Z,13.10
2023-05-18T09:26:35.691Z,13.10
2023-05-18T09:29:25.861Z,13.30
2023-05-18T09:32:20.598Z,13.40
2023-05-18T09:35:10.419Z,13.60
2023-05-18T09:38:05.112Z,13.80
2023-05-18T09:41:16.938Z,14.00
2023-05-18T09:44:09.648Z,14.00
2023-05-18T09:46:58.048Z,14.10
2023-05-18T09:49:47.353Z,14.10
2023-05-18T09:52:42.570Z,14.10
2023-05-18T09:55:32.476Z,14.10
2023-05-18T09:58:21.020Z,14.10
2023-05-18T10:01:09.129Z,14.10
2023-05-18T10:04:05.131Z,14.10
2023-05-18T10:06:53.386Z,14.10
2023-05-18T10:09:42.190Z,14.10
2023-05-18T10:12:32.011Z,14.20
2023-05-18T10:15:23.104Z,14.70
2023-05-18T10:18:11.462Z,14.80
2023-05-18T10:21:02.162Z,14.80
2023-05-18T10:23:52.237Z,15.00
2023-05-18T10:26:42.464Z,15.20
2023-05-18T10:29:33.999Z,15.30
2023-05-18T10:32:24.299Z,15.40
2023-05-18T10:35:13.510Z,15.40
2023-05-18T10:38:03.644Z,15.40
2023-05-18T10:40:53.569Z,15.50
2023-05-18T10:43:43.345Z,15.40
2023-05-18T10:46:34.514Z,15.30
2023-05-18T10:49:25.276Z,15.10
2023-05-18T10:52:14.311Z,15.10
2023-05-18T10:55:04.614Z,15.20
2023-05-18T10:57:55.983Z,15.30
2023-05-18T11:00:50.797Z,15.40
2023-05-18T11:03:42.295Z,15.40
2023-05-18T11:06:31.382Z,15.40
2023-05-18T11:09:26.265Z,15.50
2023-05-18T11:12:18.109Z,15.70
2023-05-18T11:15:08.592Z,15.90
2023-05-18T11:18:15.486Z,15.90
2023-05-18T11:21:19.601Z,16.00
2023-05-18T11:24:33.068Z,16.20
2023-05-18T11:27:24.610Z,16.30
2023-05-18T11:30:28.641Z,16.20
2023-05-18T11:33:19.604Z,16.20
2023-05-18T11:36:12.882Z,16.10
2023-05-18T11:39:06.996Z,16.30
2023-05-18T11:42:01.982Z,16.30
2023-05-18T11:44:56.711Z,16.30
2023-05-18T11:47:45.598Z,16.40
2023-05-18T11:50:34.513Z,16.50
2023-05-18T11:53:27.138Z,16.50
2023-05-18T11:56:16.214Z,16.60
2023-05-18T11:59:14.298Z,16.70
2023-05-18T12:02:04.573Z,16.80
2023-05-18T12:05:11.745Z,16.90
2023-05-18T12:08:09.860Z,16.90
2023-05-18T12:11:10.652Z,17.00
2023-05-18T12:14:09.961Z,17.10
2023-05-18T12:17:06.054Z,17.20
2023-05-18T12:20:01.587Z,17.30
2023-05-18T12:23:01.373Z,17.30
2023-05-18T12:25:56.527Z,17.40
2023-05-18T12:29:01.808Z,17.50
2023-05-18T12:31:59.670Z,17.60
2023-05-18T12:34:53.792Z,17.60
2023-05-18T12:37:52.005Z,17.50
2023-05-18T12:40:50.526Z,17.50
2023-05-18T12:43:47.740Z,17.50
2023-05-18T12:46:44.140Z,17.50
2023-05-18T12:49:41.716Z,17.60
2023-05-18T12:52:39.708Z,17.70
2023-05-18T12:55:36.325Z,17.80
2023-05-18T12:58:34.027Z,17.90
2023-05-18T13:01:30.586Z,17.80
2023-05-18T13:04:46.738Z,17.80
2023-05-18T13:07:49.718Z,17.80
2023-05-18T13:11:08.960Z,17.90
2023-05-18T13:14:15.589Z,18.00
2023-05-18T13:17:37.517Z,18.10
2023-05-18T13:20:45.738Z,18.10
2023-05-18T13:23:39.970Z,18.20
2023-05-18T13:26:39.701Z,18.10
2023-05-18T13:29:39.618Z,18.20
2023-05-18T13:32:48.011Z,18.20
2023-05-18T13:35:49.495Z,18.30
2023-05-18T13:38:52.757Z,18.30
2023-05-18T13:41:43.134Z,18.40
2023-05-18T13:44:31.878Z,18.50
2023-05-18T13:47:21.253Z,18.60
2023-05-18T13:50:10.723Z,18.70
2023-05-18T13:53:01.003Z,18.70
2023-05-18T13:55:49.554Z,18.80
2023-05-18T13:58:37.914Z,18.90
2023-05-18T14:01:26.916Z,18.90
2023-05-18T14:04:15.074Z,19.00
2023-05-18T14:07:03.854Z,19.10
2023-05-18T14:09:53.371Z,19.50
2023-05-18T14:12:43.472Z,19.40
2023-05-18T14:15:31.809Z,19.30
2023-05-18T14:18:20.067Z,19.20
2023-05-18T14:21:08.219Z,19.20
2023-05-18T14:23:56.521Z,19.30
2023-05-18T14:26:46.548Z,19.40
2023-05-18T14:29:36.197Z,19.50
2023-05-18T14:32:24.441Z,19.60
2023-05-18T14:35:13.145Z,19.70
2023-05-18T14:38:02.421Z,19.80
2023-05-18T14:40:50.546Z,19.90
2023-05-18T14:43:40.846Z,19.90
2023-05-18T14:46:29.089Z,20.00
2023-05-18T14:49:17.474Z,20.10
2023-05-18T14:52:06.367Z,20.30
2023-05-18T14:54:54.710Z,20.40
2023-05-18T14:57:42.841Z,20.90
2023-05-18T15:00:33.689Z,20.80
2023-05-18T15:03:24.949Z,20.80
2023-05-18T15:06:15.639Z,20.70
2023-05-18T15:09:06.693Z,20.80
2023-05-18T15:11:55.803Z,20.80
2023-05-18T15:14:44.049Z,20.80
2023-05-18T15:17:34.130Z,20.80
2023-05-18T15:20:23.681Z,20.80
2023-05-18T15:23:12.316Z,20.80
2023-05-18T15:26:00.684Z,20.90
2023-05-18T15:28:49.343Z,20.80
2023-05-18T15:31:50.143Z,20.90
2023-05-18T15:34:54.888Z,20.90
2023-05-18T15:37:43.294Z,20.90
2023-05-18T15:40:31.643Z,21.00
2023-05-18T15:43:20.304Z,21.00
2023-05-18T15:46:08.563Z,21.00
2023-05-18T15:48:57.138Z,21.00
2023-05-18T15:51:46.677Z,21.10
2023-05-18T15:54:34.897Z,21.00
2023-05-18T15:57:22.989Z,21.10
2023-05-18T16:00:12.135Z,21.00
2023-05-18T16:03:00.345Z,21.00
2023-05-18T16:05:48.621Z,21.00
2023-05-18T16:08:38.230Z,21.00
2023-05-18T16:11:26.356Z,21.00
2023-05-18T16:14:14.568Z,20.90
2023-05-18T16:17:03.191Z,20.80
2023-05-18T16:19:51.433Z,20.80
2023-05-18T16:22:39.558Z,20.80
2023-05-18T16:25:29.167Z,20.70
2023-05-18T16:28:17.416Z,20.60
2023-05-18T16:31:08.375Z,20.60
2023-05-18T16:33:56.739Z,20.70
2023-05-18T16:36:45.294Z,20.70
2023-05-18T16:39:33.578Z,20.80
2023-05-18T16:42:23.252Z,21.10
2023-05-18T16:45:12.008Z,20.90
2023-05-18T16:48:00.736Z,20.80
2023-05-18T16:50:49.001Z,20.70
2023-05-18T16:53:38.077Z,21.00
2023-05-18T16:56:27.014Z,20.90
2023-05-18T16:59:16.489Z,20.80
2023-05-18T17:02:04.768Z,20.70
2023-05-18T17:04:52.918Z,20.60
2023-05-18T17:07:41.177Z,20.60
2023-05-18T17:10:29.704Z,20.60
2023-05-18T17:13:18.205Z,20.60
2023-05-18T17:16:08.262Z,20.70
2023-05-18T17:18:57.690Z,20.80
2023-05-18T17:21:46.064Z,20.90
2023-05-18T17:24:34.389Z,20.80
2023-05-18T17:27:22.968Z,20.70
2023-05-18T17:30:11.866Z,20.40
2023-05-18T17:33:01.568Z,20.20
2023-05-18T17:35:50.195Z,20.10
2023-05-18T17:38:38.422Z,20.10
2023-05-18T17:41:27.170Z,20.50
2023-05-18T17:44:16.667Z,20.40
2023-05-18T17:47:05.078Z,20.30
2023-05-18T17:49:54.698Z,20.30
2023-05-18T17:52:42.897Z,20.30
2023-05-18T17:55:31.105Z,20.40
2023-05-18T17:58:19.396Z,20.40
2023-05-18T18:01:08.733Z,20.50
2023-05-18T18:03:57.535Z,20.60
2023-05-18T18:06:47.517Z,20.80
2023-05-18T18:09:38.093Z,21.30
2023-05-18T18:12:26.300Z,21.90
2023-05-18T18:15:14.566Z,23.20
2023-05-18T18:18:03.192Z,23.80
2023-05-18T18:20:51.831Z,23.70
2023-05-18T18:23:42.196Z,24.50
2023-05-18T18:26:31.141Z,25.30
2023-05-18T18:29:20.125Z,25.90
2023-05-18T18:32:08.970Z,26.20
2023-05-18T18:34:58.113Z,26.30
2023-05-18T18:37:47.476Z,26.10
2023-05-18T18:40:37.361Z,25.50
2023-05-18T18:43:27.819Z,24.50
2023-05-18T18:46:16.213Z,23.50
2023-05-18T18:49:04.756Z,22.60
2023-05-18T18:51:53.343Z,21.90
2023-05-18T18:54:41.919Z,21.30
2023-05-18T18:57:33.411Z,20.80
2023-05-18T19:00:22.276Z,20.30
2023-05-18T19:03:11.075Z,19.80
2023-05-18T19:05:59.639Z,19.50
2023-05-18T19:08:48.923Z,19.80
2023-05-18T19:11:37.430Z,19.20
2023-05-18T19:14:27.380Z,18.70
2023-05-18T19:17:16.218Z,18.70
2023-05-18T19:20:07.791Z,18.40
2023-05-18T19:22:56.421Z,18.00
2023-05-18T19:25:44.853Z,17.70
2023-05-18T19:28:33.431Z,17.40
2023-05-18T19:31:23.292Z,17.20
2023-05-18T19:34:11.877Z,17.10
2023-05-18T19:37:00.355Z,16.80
2023-05-18T19:39:48.953Z,16.70
2023-05-18T19:42:37.357Z,16.60
2023-05-18T19:45:25.974Z,16.40
2023-05-18T19:48:17.520Z,16.30
2023-05-18T19:51:06.929Z,16.20
2023-05-18T19:53:55.592Z,16.10
2023-05-18T19:56:43.944Z,15.90
2023-05-18T19:59:32.922Z,15.80
2023-05-18T20:02:21.701Z,15.80
2023-05-18T20:05:12.837Z,15.70
2023-05-18T20:08:02.270Z,15.60
2023-05-18T20:10:50.559Z,15.50
2023-05-18T20:13:38.836Z,15.50
2023-05-18T20:16:29.421Z,15.40
2023-05-18T20:19:18.291Z,15.40
2023-05-18T20:22:10.981Z,15.20
2023-05-18T20:25:01.174Z,15.20
2023-05-18T20:27:49.856Z,15.00
2023-05-18T20:30:38.217Z,15.00
2023-05-18T20:33:26.641Z,14.90
2023-05-18T20:36:15.336Z,14.80
2023-05-18T20:39:05.696Z,14.70
2023-05-18T20:41:54.046Z,14.70
2023-05-18T20:44:43.007Z,14.60
2023-05-18T20:47:32.047Z,14.50
2023-05-18T20:50:21.237Z,14.40
2023-05-18T20:53:09.618Z,14.20
2023-05-18T20:56:01.851Z,14.20
2023-05-18T20:58:51.253Z,14.10
2023-05-18T21:01:41.364Z,14.00
2023-05-18T21:04:30.793Z,13.90
2023-05-18T21:07:21.548Z,13.80
2023-05-18T21:10:13.169Z,13.70
2023-05-18T21:13:03.347Z,13.50
2023-05-18T21:15:52.710Z,13.50
2023-05-18T21:18:40.931Z,14.00
2023-05-18T21:21:29.590Z,13.70
2023-05-18T21:24:17.916Z,13.40
2023-05-18T21:27:07.198Z,13.20
2023-05-18T21:29:57.185Z,13.60
2023-05-18T21:32:45.665Z,13.30
2023-05-18T21:35:34.269Z,13.00
2023-05-18T21:38:23.510Z,12.90
2023-05-18T21:41:12.115Z,12.70
2023-05-18T21:44:00.364Z,12.70
2023-05-18T21:46:54.969Z,12.70
2023-05-18T21:49:44.231Z,12.60
2023-05-18T21:52:33.931Z,12.60
2023-05-18T21:55:22.659Z,12.50
2023-05-18T21:58:11.034Z,12.40
2023-05-18T22:01:00.270Z,12.30
2023-05-18T22:03:50.643Z,12.30
2023-05-18T22:06:39.062Z,12.20
2023-05-18T22:09:27.770Z,12.10
2023-05-18T22:12:16.079Z,12.10
2023-05-18T22:15:04.729Z,12.00
2023-05-18T22:17:56.248Z,12.00
2023-05-18T22:20:46.610Z,12.00
2023-05-18T22:23:35.642Z,11.90
2023-05-18T22:26:24.437Z,11.70
2023-05-18T22:29:13.652Z,11.70
2023-05-18T22:32:02.543Z,11.60
2023-05-18T22:34:51.156Z,11.50
2023-05-18T22:37:41.238Z,11.50
2023-05-18T22:40:29.751Z,11.50
2023-05-18T22:43:18.037Z,11.40
2023-05-18T22:46:06.413Z,11.30
2023-05-18T22:48:54.852Z,11.30
2023-05-18T22:51:43.537Z,11.30
2023-05-18T22:54:33.281Z,11.20
2023-05-18T22:57:22.125Z,11.10
2023-05-18T23:00:12.551Z,11.00
2023-05-18T23:03:00.889Z,11.10
2023-05-18T23:05:49.440Z,11.00
2023-05-18T23:08:38.112Z,10.90
2023-05-18T23:11:28.734Z,10.80
2023-05-18T23:14:20.140Z,10.70
2023-05-18T23:17:09.201Z,10.70
2023-05-18T23:19:59.338Z,10.60
2023-05-18T23:22:47.536Z,10.60
2023-05-18T23:25:35.916Z,10.50
2023-05-18T23:28:25.669Z,10.50
2023-05-18T23:31:14.016Z,10.50
2023-05-18T23:34:02.833Z,10.50
2023-05-18T23:36:57.455Z,10.40
2023-05-18T23:39:47.295Z,10.40
2023-05-18T23:42:36.327Z,10.30
2023-05-18T23:45:26.520Z,10.30
2023-05-18T23:48:15.294Z,10.20
2023-05-18T23:51:04.424Z,10.20
2023-05-18T23:53:53.294Z,10.20
2023-05-18T23:56:42.237Z,10.20
2023-05-18T23:59:32.077Z,10.20
